sensor_id;sensor_type;location;lat;lon;timestamp;P1;durP1;ratioP1;P2;durP2;ratioP2
48403;SDS011;34202;52.536;6.042;2023-02-12T00:03:21;28.70;;;17.60;;
48403;SDS011;34202;52.536;6.042;2023-02-12T00:08:21;32.00;;;18.70;;
48403;SDS011;34202;52.536;6.042;2023-02-12T00:13:21;27.40;;;17.80;;
48403;SDS011;34202;52.536;6.042;2023-02-12T00:18:22;37.30;;;20.20;;
48403;SDS011;34202;52.536;6.042;2023-02-12T00:23:22;25.30;;;16.90;;
48403;SDS011;34202;52.536;6.042;2023-02-12T00:28:23;30.80;;;17.10;;
48403;SDS011;34202;52.536;6.042;2023-02-12T00:33:23;24.40;;;16.80;;
48403;SDS011;34202;52.536;6.042;2023-02-12T00:38:24;24.20;;;16.70;;
48403;SDS011;34202;52.536;6.042;2023-02-12T00:43:24;22.50;;;17.00;;
48403;SDS011;34202;52.536;6.042;2023-02-12T00:48:24;25.70;;;17.70;;
48403;SDS011;34202;52.536;6.042;2023-02-12T00:53:25;27.60;;;16.50;;
48403;SDS011;34202;52.536;6.042;2023-02-12T00:58:25;29.40;;;16.60;;
48403;SDS011;34202;52.536;6.042;2023-02-12T01:03:26;24.90;;;16.40;;
48403;SDS011;34202;52.536;6.042;2023-02-12T01:08:26;28.50;;;17.60;;
48403;SDS011;34202;52.536;6.042;2023-02-12T01:13:27;28.70;;;17.60;;
48403;SDS011;34202;52.536;6.042;2023-02-12T01:18:29;25.10;;;16.80;;
48403;SDS011;34202;52.536;6.042;2023-02-12T01:23:29;25.40;;;16.30;;
48403;SDS011;34202;52.536;6.042;2023-02-12T01:28:29;24.10;;;14.10;;
48403;SDS011;34202;52.536;6.042;2023-02-12T01:33:30;24.00;;;15.80;;
48403;SDS011;34202;52.536;6.042;2023-02-12T01:38:30;22.70;;;13.80;;
48403;SDS011;34202;52.536;6.042;2023-02-12T01:43:31;29.00;;;16.70;;
48403;SDS011;34202;52.536;6.042;2023-02-12T01:48:36;21.90;;;14.00;;
48403;SDS011;34202;52.536;6.042;2023-02-12T01:53:41;23.70;;;13.70;;
48403;SDS011;34202;52.536;6.042;2023-02-12T01:58:48;22.60;;;15.60;;
48403;SDS011;34202;52.536;6.042;2023-02-12T02:03:52;20.40;;;13.30;;
48403;SDS011;34202;52.536;6.042;2023-02-12T02:08:57;16.70;;;12.50;;
48403;SDS011;34202;52.536;6.042;2023-02-12T02:13:58;16.90;;;12.10;;
48403;SDS011;34202;52.536;6.042;2023-02-12T02:30:19;19.90;;;13.30;;
48403;SDS011;34202;52.536;6.042;2023-02-12T02:40:56;20.40;;;13.70;;
48403;SDS011;34202;52.536;6.042;2023-02-12T02:51:08;29.10;;;11.70;;
48403;SDS011;34202;52.536;6.042;2023-02-12T02:56:15;35.20;;;11.70;;
48403;SDS011;34202;52.536;6.042;2023-02-12T03:01:29;20.40;;;10.30;;
48403;SDS011;34202;52.536;6.042;2023-02-12T03:11:46;25.30;;;9.90;;
48403;SDS011;34202;52.536;6.042;2023-02-12T03:16:49;32.00;;;9.70;;
48403;SDS011;34202;52.536;6.042;2023-02-12T03:21:55;24.60;;;7.90;;
48403;SDS011;34202;52.536;6.042;2023-02-12T03:32:18;14.90;;;9.00;;
48403;SDS011;34202;52.536;6.042;2023-02-12T03:37:28;23.60;;;10.30;;
48403;SDS011;34202;52.536;6.042;2023-02-12T03:42:35;14.00;;;10.20;;
48403;SDS011;34202;52.536;6.042;2023-02-12T03:47:45;18.80;;;9.40;;
48403;SDS011;34202;52.536;6.042;2023-02-12T03:52:50;18.10;;;11.40;;
48403;SDS011;34202;52.536;6.042;2023-02-12T03:57:51;27.60;;;10.30;;
48403;SDS011;34202;52.536;6.042;2023-02-12T04:02:57;15.60;;;10.90;;
48403;SDS011;34202;52.536;6.042;2023-02-12T04:07:58;15.50;;;10.30;;
48403;SDS011;34202;52.536;6.042;2023-02-12T04:13:18;14.80;;;10.10;;
48403;SDS011;34202;52.536;6.042;2023-02-12T04:34:17;18.40;;;12.90;;
48403;SDS011;34202;52.536;6.042;2023-02-12T04:39:22;16.50;;;11.40;;
48403;SDS011;34202;52.536;6.042;2023-02-12T04:44:29;18.70;;;12.90;;
48403;SDS011;34202;52.536;6.042;2023-02-12T04:49:31;19.10;;;12.70;;
48403;SDS011;34202;52.536;6.042;2023-02-12T04:54:31;23.90;;;14.10;;
48403;SDS011;34202;52.536;6.042;2023-02-12T04:59:32;23.10;;;14.90;;
48403;SDS011;34202;52.536;6.042;2023-02-12T05:04:32;28.30;;;16.00;;
48403;SDS011;34202;52.536;6.042;2023-02-12T05:09:32;19.10;;;13.90;;
48403;SDS011;34202;52.536;6.042;2023-02-12T05:14:33;22.20;;;14.10;;
48403;SDS011;34202;52.536;6.042;2023-02-12T05:19:33;23.60;;;14.60;;
48403;SDS011;34202;52.536;6.042;2023-02-12T05:24:34;23.20;;;14.60;;
48403;SDS011;34202;52.536;6.042;2023-02-12T05:29:34;24.00;;;15.10;;
48403;SDS011;34202;52.536;6.042;2023-02-12T05:34:35;24.90;;;16.40;;
48403;SDS011;34202;52.536;6.042;2023-02-12T05:39:36;24.30;;;16.70;;
48403;SDS011;34202;52.536;6.042;2023-02-12T05:44:36;30.00;;;18.50;;
48403;SDS011;34202;52.536;6.042;2023-02-12T05:49:36;28.40;;;18.00;;
48403;SDS011;34202;52.536;6.042;2023-02-12T05:54:36;30.10;;;19.10;;
48403;SDS011;34202;52.536;6.042;2023-02-12T05:59:37;27.80;;;17.80;;
48403;SDS011;34202;52.536;6.042;2023-02-12T06:04:38;26.00;;;17.90;;
48403;SDS011;34202;52.536;6.042;2023-02-12T06:09:38;29.10;;;18.80;;
48403;SDS011;34202;52.536;6.042;2023-02-12T06:14:39;31.10;;;19.60;;
48403;SDS011;34202;52.536;6.042;2023-02-12T06:19:40;37.60;;;21.10;;
48403;SDS011;34202;52.536;6.042;2023-02-12T06:24:40;34.20;;;20.70;;
48403;SDS011;34202;52.536;6.042;2023-02-12T06:29:40;35.30;;;20.00;;
48403;SDS011;34202;52.536;6.042;2023-02-12T06:34:42;39.30;;;21.40;;
48403;SDS011;34202;52.536;6.042;2023-02-12T06:39:42;37.50;;;22.20;;
48403;SDS011;34202;52.536;6.042;2023-02-12T06:44:42;35.10;;;21.30;;
48403;SDS011;34202;52.536;6.042;2023-02-12T06:49:43;38.30;;;21.20;;
48403;SDS011;34202;52.536;6.042;2023-02-12T06:54:43;42.60;;;24.80;;
48403;SDS011;34202;52.536;6.042;2023-02-12T06:59:43;35.00;;;23.00;;
48403;SDS011;34202;52.536;6.042;2023-02-12T07:04:43;43.90;;;23.80;;
48403;SDS011;34202;52.536;6.042;2023-02-12T07:09:44;41.90;;;24.80;;
48403;SDS011;34202;52.536;6.042;2023-02-12T07:14:44;37.30;;;23.80;;
48403;SDS011;34202;52.536;6.042;2023-02-12T07:19:44;42.60;;;25.50;;
48403;SDS011;34202;52.536;6.042;2023-02-12T07:24:45;38.60;;;24.30;;
48403;SDS011;34202;52.536;6.042;2023-02-12T07:29:45;47.70;;;26.00;;
48403;SDS011;34202;52.536;6.042;2023-02-12T07:34:46;45.90;;;26.00;;
48403;SDS011;34202;52.536;6.042;2023-02-12T07:39:46;39.80;;;25.60;;
48403;SDS011;34202;52.536;6.042;2023-02-12T07:44:48;42.80;;;25.40;;
48403;SDS011;34202;52.536;6.042;2023-02-12T07:49:48;43.00;;;25.10;;
48403;SDS011;34202;52.536;6.042;2023-02-12T07:54:49;45.10;;;27.00;;
48403;SDS011;34202;52.536;6.042;2023-02-12T07:59:49;48.10;;;26.90;;
48403;SDS011;34202;52.536;6.042;2023-02-12T08:04:53;54.80;;;27.40;;
48403;SDS011;34202;52.536;6.042;2023-02-12T08:14:55;48.10;;;25.50;;
48403;SDS011;34202;52.536;6.042;2023-02-12T08:19:56;46.10;;;26.10;;
48403;SDS011;34202;52.536;6.042;2023-02-12T08:24:56;44.80;;;25.90;;
48403;SDS011;34202;52.536;6.042;2023-02-12T08:29:56;51.20;;;28.70;;
48403;SDS011;34202;52.536;6.042;2023-02-12T08:34:57;47.30;;;27.50;;
48403;SDS011;34202;52.536;6.042;2023-02-12T08:39:57;55.60;;;28.40;;
48403;SDS011;34202;52.536;6.042;2023-02-12T08:44:57;51.00;;;27.80;;
48403;SDS011;34202;52.536;6.042;2023-02-12T08:49:58;48.60;;;27.60;;
48403;SDS011;34202;52.536;6.042;2023-02-12T08:54:58;51.60;;;29.90;;
48403;SDS011;34202;52.536;6.042;2023-02-12T08:59:58;47.50;;;28.60;;
48403;SDS011;34202;52.536;6.042;2023-02-12T09:04:58;47.80;;;28.70;;
48403;SDS011;34202;52.536;6.042;2023-02-12T09:09:59;50.10;;;26.50;;
48403;SDS011;34202;52.536;6.042;2023-02-12T09:14:59;55.10;;;29.30;;
48403;SDS011;34202;52.536;6.042;2023-02-12T09:19:59;51.70;;;28.00;;
48403;SDS011;34202;52.536;6.042;2023-02-12T09:25:01;46.60;;;25.80;;
48403;SDS011;34202;52.536;6.042;2023-02-12T09:30:01;49.90;;;26.80;;
48403;SDS011;34202;52.536;6.042;2023-02-12T09:35:02;48.90;;;28.00;;
48403;SDS011;34202;52.536;6.042;2023-02-12T09:40:02;42.30;;;25.70;;
48403;SDS011;34202;52.536;6.042;2023-02-12T09:45:09;49.50;;;27.60;;
48403;SDS011;34202;52.536;6.042;2023-02-12T09:55:29;49.10;;;26.60;;
48403;SDS011;34202;52.536;6.042;2023-02-12T10:00:31;46.60;;;25.30;;
48403;SDS011;34202;52.536;6.042;2023-02-12T10:05:38;45.30;;;25.70;;
48403;SDS011;34202;52.536;6.042;2023-02-12T10:16:20;42.10;;;27.10;;
48403;SDS011;34202;52.536;6.042;2023-02-12T10:26:39;44.60;;;24.30;;
48403;SDS011;34202;52.536;6.042;2023-02-12T10:36:46;45.40;;;27.10;;
48403;SDS011;34202;52.536;6.042;2023-02-12T10:41:51;44.20;;;26.40;;
48403;SDS011;34202;52.536;6.042;2023-02-12T10:46:58;41.30;;;26.00;;
48403;SDS011;34202;52.536;6.042;2023-02-12T10:57:14;40.00;;;23.70;;
48403;SDS011;34202;52.536;6.042;2023-02-12T11:02:26;35.30;;;23.70;;
48403;SDS011;34202;52.536;6.042;2023-02-12T11:07:37;41.50;;;24.30;;
48403;SDS011;34202;52.536;6.042;2023-02-12T11:12:47;36.00;;;21.10;;
48403;SDS011;34202;52.536;6.042;2023-02-12T11:17:58;32.60;;;21.80;;
48403;SDS011;34202;52.536;6.042;2023-02-12T11:23:01;34.10;;;22.30;;
48403;SDS011;34202;52.536;6.042;2023-02-12T11:28:14;30.40;;;20.10;;
48403;SDS011;34202;52.536;6.042;2023-02-12T11:33:21;35.00;;;20.90;;
48403;SDS011;34202;52.536;6.042;2023-02-12T11:38:33;30.00;;;20.80;;
48403;SDS011;34202;52.536;6.042;2023-02-12T11:43:37;31.40;;;18.80;;
48403;SDS011;34202;52.536;6.042;2023-02-12T11:48:38;30.80;;;19.00;;
48403;SDS011;34202;52.536;6.042;2023-02-12T11:53:45;26.40;;;18.00;;
48403;SDS011;34202;52.536;6.042;2023-02-12T11:58:49;22.70;;;15.20;;
48403;SDS011;34202;52.536;6.042;2023-02-12T12:03:53;23.00;;;16.90;;
48403;SDS011;34202;52.536;6.042;2023-02-12T12:09:04;20.40;;;13.30;;
48403;SDS011;34202;52.536;6.042;2023-02-12T12:14:36;15.30;;;11.10;;
48403;SDS011;34202;52.536;6.042;2023-02-12T12:20:04;15.20;;;10.00;;
48403;SDS011;34202;52.536;6.042;2023-02-12T12:36:25;10.80;;;8.30;;
48403;SDS011;34202;52.536;6.042;2023-02-12T12:41:14;14.10;;;10.50;;
48403;SDS011;34202;52.536;6.042;2023-02-12T12:46:43;13.60;;;10.70;;
48403;SDS011;34202;52.536;6.042;2023-02-12T12:51:59;16.10;;;10.50;;
48403;SDS011;34202;52.536;6.042;2023-02-12T12:57:20;15.30;;;9.90;;
48403;SDS011;34202;52.536;6.042;2023-02-12T13:13:30;11.20;;;7.80;;
48403;SDS011;34202;52.536;6.042;2023-02-12T13:18:50;8.00;;;5.60;;
48403;SDS011;34202;52.536;6.042;2023-02-12T13:29:23;9.00;;;6.00;;
48403;SDS011;34202;52.536;6.042;2023-02-12T13:34:28;9.40;;;6.40;;
48403;SDS011;34202;52.536;6.042;2023-02-12T13:39:33;8.70;;;6.60;;
48403;SDS011;34202;52.536;6.042;2023-02-12T13:55:20;12.80;;;8.80;;
48403;SDS011;34202;52.536;6.042;2023-02-12T14:05:46;9.30;;;6.80;;
48403;SDS011;34202;52.536;6.042;2023-02-12T14:10:48;12.20;;;8.10;;
48403;SDS011;34202;52.536;6.042;2023-02-12T14:16:53;10.20;;;7.50;;
48403;SDS011;34202;52.536;6.042;2023-02-12T14:26:37;10.70;;;8.80;;
48403;SDS011;34202;52.536;6.042;2023-02-12T14:31:38;13.80;;;9.70;;
48403;SDS011;34202;52.536;6.042;2023-02-12T14:36:39;19.70;;;12.70;;
48403;SDS011;34202;52.536;6.042;2023-02-12T14:41:42;15.90;;;13.40;;
48403;SDS011;34202;52.536;6.042;2023-02-12T14:46:45;17.10;;;13.70;;
48403;SDS011;34202;52.536;6.042;2023-02-12T14:51:57;44.10;;;27.70;;
48403;SDS011;34202;52.536;6.042;2023-02-12T14:57:05;28.60;;;18.20;;
48403;SDS011;34202;52.536;6.042;2023-02-12T15:02:25;17.60;;;12.90;;
48403;SDS011;34202;52.536;6.042;2023-02-12T15:07:29;60.10;;;45.10;;
48403;SDS011;34202;52.536;6.042;2023-02-12T15:17:36;21.40;;;16.70;;
48403;SDS011;34202;52.536;6.042;2023-02-12T15:22:40;17.80;;;13.50;;
48403;SDS011;34202;52.536;6.042;2023-02-12T15:27:44;17.10;;;12.00;;
48403;SDS011;34202;52.536;6.042;2023-02-12T15:32:47;17.40;;;13.00;;
48403;SDS011;34202;52.536;6.042;2023-02-12T15:37:48;22.60;;;13.90;;
48403;SDS011;34202;52.536;6.042;2023-02-12T15:42:52;23.20;;;14.20;;
48403;SDS011;34202;52.536;6.042;2023-02-12T15:48:06;20.40;;;15.70;;
48403;SDS011;34202;52.536;6.042;2023-02-12T15:53:12;21.10;;;17.40;;
48403;SDS011;34202;52.536;6.042;2023-02-12T15:58:18;23.80;;;17.90;;
48403;SDS011;34202;52.536;6.042;2023-02-12T16:03:23;28.80;;;22.50;;
48403;SDS011;34202;52.536;6.042;2023-02-12T16:08:26;30.20;;;22.40;;
48403;SDS011;34202;52.536;6.042;2023-02-12T16:13:30;34.00;;;23.60;;
48403;SDS011;34202;52.536;6.042;2023-02-12T16:18:33;35.90;;;27.10;;
48403;SDS011;34202;52.536;6.042;2023-02-12T16:23:33;32.70;;;21.00;;
48403;SDS011;34202;52.536;6.042;2023-02-12T16:28:34;29.70;;;20.70;;
48403;SDS011;34202;52.536;6.042;2023-02-12T16:38:43;28.40;;;20.60;;
48403;SDS011;34202;52.536;6.042;2023-02-12T16:43:46;26.80;;;20.00;;
48403;SDS011;34202;52.536;6.042;2023-02-12T16:49:12;24.60;;;18.90;;
48403;SDS011;34202;52.536;6.042;2023-02-12T16:54:29;28.00;;;20.20;;
48403;SDS011;34202;52.536;6.042;2023-02-12T16:59:33;26.60;;;20.10;;
48403;SDS011;34202;52.536;6.042;2023-02-12T17:04:34;25.60;;;18.90;;
48403;SDS011;34202;52.536;6.042;2023-02-12T17:09:35;25.40;;;18.50;;
48403;SDS011;34202;52.536;6.042;2023-02-12T17:14:35;29.00;;;18.20;;
48403;SDS011;34202;52.536;6.042;2023-02-12T17:19:35;42.60;;;22.40;;
48403;SDS011;34202;52.536;6.042;2023-02-12T17:24:36;27.40;;;19.50;;
48403;SDS011;34202;52.536;6.042;2023-02-12T17:29:36;25.90;;;18.20;;
48403;SDS011;34202;52.536;6.042;2023-02-12T17:34:36;24.70;;;18.30;;
48403;SDS011;34202;52.536;6.042;2023-02-12T17:39:38;29.60;;;20.00;;
48403;SDS011;34202;52.536;6.042;2023-02-12T17:44:38;27.50;;;18.30;;
48403;SDS011;34202;52.536;6.042;2023-02-12T17:49:39;27.80;;;20.20;;
48403;SDS011;34202;52.536;6.042;2023-02-12T17:54:42;25.40;;;18.10;;
48403;SDS011;34202;52.536;6.042;2023-02-12T17:59:43;26.70;;;19.00;;
48403;SDS011;34202;52.536;6.042;2023-02-12T18:04:43;27.90;;;19.60;;
48403;SDS011;34202;52.536;6.042;2023-02-12T18:09:44;25.60;;;17.70;;
48403;SDS011;34202;52.536;6.042;2023-02-12T18:14:44;27.20;;;19.60;;
48403;SDS011;34202;52.536;6.042;2023-02-12T18:19:44;27.90;;;19.20;;
48403;SDS011;34202;52.536;6.042;2023-02-12T18:24:46;27.10;;;18.40;;
48403;SDS011;34202;52.536;6.042;2023-02-12T18:29:47;24.30;;;17.30;;
48403;SDS011;34202;52.536;6.042;2023-02-12T18:34:47;26.40;;;18.80;;
48403;SDS011;34202;52.536;6.042;2023-02-12T18:39:48;29.80;;;18.60;;
48403;SDS011;34202;52.536;6.042;2023-02-12T18:44:49;29.50;;;18.70;;
48403;SDS011;34202;52.536;6.042;2023-02-12T18:49:50;29.90;;;20.20;;
48403;SDS011;34202;52.536;6.042;2023-02-12T18:54:50;29.00;;;19.90;;
48403;SDS011;34202;52.536;6.042;2023-02-12T18:59:52;25.70;;;18.00;;
48403;SDS011;34202;52.536;6.042;2023-02-12T19:04:52;24.90;;;17.60;;
48403;SDS011;34202;52.536;6.042;2023-02-12T19:09:52;21.90;;;16.70;;
48403;SDS011;34202;52.536;6.042;2023-02-12T19:14:53;26.10;;;18.30;;
48403;SDS011;34202;52.536;6.042;2023-02-12T19:19:53;26.80;;;19.00;;
48403;SDS011;34202;52.536;6.042;2023-02-12T19:24:54;24.30;;;16.90;;
48403;SDS011;34202;52.536;6.042;2023-02-12T19:29:54;24.30;;;17.60;;
48403;SDS011;34202;52.536;6.042;2023-02-12T19:34:54;27.60;;;17.30;;
48403;SDS011;34202;52.536;6.042;2023-02-12T19:39:55;21.10;;;14.60;;
48403;SDS011;34202;52.536;6.042;2023-02-12T19:44:55;24.40;;;15.10;;
48403;SDS011;34202;52.536;6.042;2023-02-12T19:49:55;22.10;;;14.50;;
48403;SDS011;34202;52.536;6.042;2023-02-12T19:54:56;24.50;;;17.00;;
48403;SDS011;34202;52.536;6.042;2023-02-12T19:59:57;22.60;;;15.50;;
48403;SDS011;34202;52.536;6.042;2023-02-12T20:04:57;24.60;;;16.70;;
48403;SDS011;34202;52.536;6.042;2023-02-12T20:09:58;24.10;;;15.10;;
48403;SDS011;34202;52.536;6.042;2023-02-12T20:14:58;26.40;;;17.70;;
48403;SDS011;34202;52.536;6.042;2023-02-12T20:20:02;22.20;;;15.30;;
48403;SDS011;34202;52.536;6.042;2023-02-12T20:25:03;22.30;;;15.70;;
48403;SDS011;34202;52.536;6.042;2023-02-12T20:30:04;27.80;;;18.60;;
48403;SDS011;34202;52.536;6.042;2023-02-12T20:35:06;26.80;;;18.20;;
48403;SDS011;34202;52.536;6.042;2023-02-12T20:40:06;23.80;;;17.40;;
48403;SDS011;34202;52.536;6.042;2023-02-12T20:45:07;23.30;;;16.10;;
48403;SDS011;34202;52.536;6.042;2023-02-12T20:50:08;28.50;;;17.20;;
48403;SDS011;34202;52.536;6.042;2023-02-12T20:55:08;24.80;;;17.00;;
48403;SDS011;34202;52.536;6.042;2023-02-12T21:00:09;22.90;;;15.90;;
48403;SDS011;34202;52.536;6.042;2023-02-12T21:05:10;23.90;;;16.50;;
48403;SDS011;34202;52.536;6.042;2023-02-12T21:10:10;23.60;;;17.00;;
48403;SDS011;34202;52.536;6.042;2023-02-12T21:15:10;26.10;;;16.60;;
48403;SDS011;34202;52.536;6.042;2023-02-12T21:20:11;25.20;;;16.00;;
48403;SDS011;34202;52.536;6.042;2023-02-12T21:25:11;25.80;;;15.70;;
48403;SDS011;34202;52.536;6.042;2023-02-12T21:30:12;24.90;;;17.40;;
48403;SDS011;34202;52.536;6.042;2023-02-12T21:35:12;25.50;;;16.30;;
48403;SDS011;34202;52.536;6.042;2023-02-12T21:40:13;27.00;;;17.70;;
48403;SDS011;34202;52.536;6.042;2023-02-12T21:45:13;31.90;;;18.60;;
48403;SDS011;34202;52.536;6.042;2023-02-12T21:50:13;24.50;;;16.30;;
48403;SDS011;34202;52.536;6.042;2023-02-12T21:55:14;26.80;;;18.10;;
48403;SDS011;34202;52.536;6.042;2023-02-12T22:00:14;28.10;;;18.00;;
48403;SDS011;34202;52.536;6.042;2023-02-12T22:05:15;27.50;;;18.90;;
48403;SDS011;34202;52.536;6.042;2023-02-12T22:10:15;23.90;;;16.60;;
48403;SDS011;34202;52.536;6.042;2023-02-12T22:15:16;30.70;;;20.50;;
48403;SDS011;34202;52.536;6.042;2023-02-12T22:20:16;30.60;;;19.60;;
48403;SDS011;34202;52.536;6.042;2023-02-12T22:25:17;30.10;;;19.30;;
48403;SDS011;34202;52.536;6.042;2023-02-12T22:30:17;28.80;;;18.60;;
48403;SDS011;34202;52.536;6.042;2023-02-12T22:35:18;31.20;;;19.80;;
48403;SDS011;34202;52.536;6.042;2023-02-12T22:40:19;29.10;;;18.40;;
48403;SDS011;34202;52.536;6.042;2023-02-12T22:45:19;27.50;;;16.00;;
48403;SDS011;34202;52.536;6.042;2023-02-12T22:50:19;28.70;;;19.10;;
48403;SDS011;34202;52.536;6.042;2023-02-12T22:55:20;29.20;;;19.10;;
48403;SDS011;34202;52.536;6.042;2023-02-12T23:00:20;29.20;;;19.70;;
48403;SDS011;34202;52.536;6.042;2023-02-12T23:05:20;32.10;;;21.30;;
48403;SDS011;34202;52.536;6.042;2023-02-12T23:10:21;36.20;;;22.10;;
48403;SDS011;34202;52.536;6.042;2023-02-12T23:15:21;29.70;;;20.00;;
48403;SDS011;34202;52.536;6.042;2023-02-12T23:20:22;33.00;;;20.30;;
48403;SDS011;34202;52.536;6.042;2023-02-12T23:25:22;31.10;;;20.10;;
48403;SDS011;34202;52.536;6.042;2023-02-12T23:30:22;37.40;;;21.20;;
48403;SDS011;34202;52.536;6.042;2023-02-12T23:35:23;35.30;;;21.80;;
48403;SDS011;34202;52.536;6.042;2023-02-12T23:40:24;31.00;;;20.10;;
48403;SDS011;34202;52.536;6.042;2023-02-12T23:45:24;31.20;;;20.80;;
48403;SDS011;34202;52.536;6.042;2023-02-12T23:50:25;32.60;;;20.20;;
48403;SDS011;34202;52.536;6.042;2023-02-12T23:55:26;32.40;;;21.30;;
